CheckWX is a tool to help pilots better visualize weather data.  It is not intended as a substitute for an official pre-flight weather briefing.

10:09:01 UTC

KLUK TAF
Cincinnati Municipal Lunken Field Airport
Cincinnati, Ohio, USA
KLUK 260540Z 2606/2706 00000KT P6SM SCT150 FM261200 22003KT P6SM SCT150 FM261700 24004KT P6SM FEW050 FM270100 VRB02KT P6SM FEW150

Jun-26@
06:00 UTC

Jun-26 @ 06:00 UTC

Jun-26@
12:00 UTC

Jun-26 @ 12:00 UTC

KLUK 260540Z 2606/2706 00000KT P6SM SCT150
Cloud Levels
  • Scattered at 15,000' AGL

Jun-26@
12:00 UTC

Jun-26 @ 12:00 UTC

Jun-26@
17:00 UTC

Jun-26 @ 17:00 UTC

FM261200 22003KT P6SM SCT150

From

From Standard forecast or significant change

Wind
  • 220° at 3 KTS
Cloud Levels
  • Scattered at 15,000' AGL

Jun-26@
17:00 UTC

Jun-26 @ 17:00 UTC

Jun-27@
01:00 UTC

Jun-27 @ 01:00 UTC

FM261700 24004KT P6SM FEW050

From

From Standard forecast or significant change

Wind
  • 240° at 4 KTS
Cloud Levels
  • Few at 5,000' AGL

Jun-27@
01:00 UTC

Jun-27 @ 01:00 UTC

Jun-27@
06:00 UTC

Jun-27 @ 06:00 UTC

FM270100 VRB02KT P6SM FEW150

From

From Standard forecast or significant change

Wind
  • Variable at 2 KTS
Cloud Levels
  • Few at 15,000' AGL